createdAt,value
2022-10-18T00:00:00.680Z,12.70
2022-10-18T00:01:00.680Z,14.20
2022-10-18T00:02:00.730Z,11.30
2022-10-18T00:03:00.648Z,13.80
2022-10-18T00:04:00.638Z,9.70
2022-10-18T00:05:00.633Z,11.00
2022-10-18T00:06:00.635Z,9.10
2022-10-18T00:07:00.627Z,13.50
2022-10-18T00:08:00.653Z,10.80
2022-10-18T00:09:00.638Z,14.40
2022-10-18T00:10:00.717Z,11.40
2022-10-18T00:11:00.670Z,14.40
2022-10-18T00:12:00.637Z,14.30
2022-10-18T00:13:00.599Z,13.50
2022-10-18T00:14:00.628Z,15.10
2022-10-18T00:15:00.629Z,13.30
2022-10-18T00:16:00.599Z,12.40
2022-10-18T00:17:00.617Z,13.10
2022-10-18T00:18:00.581Z,10.80
2022-10-18T00:19:00.564Z,14.40
2022-10-18T00:20:00.544Z,13.40
2022-10-18T00:21:00.506Z,15.10
2022-10-18T00:22:00.514Z,12.10
2022-10-18T00:23:00.585Z,11.90
2022-10-18T00:24:00.522Z,12.50
2022-10-18T00:25:00.514Z,13.10
2022-10-18T00:26:00.492Z,15.00
2022-10-18T00:27:00.540Z,14.90
2022-10-18T00:28:00.461Z,11.10
2022-10-18T00:29:00.550Z,12.30
2022-10-18T00:30:00.471Z,12.60
2022-10-18T00:31:00.595Z,13.50
2022-10-18T00:32:00.472Z,13.40
2022-10-18T00:33:00.430Z,11.90
2022-10-18T00:34:00.439Z,12.10
2022-10-18T00:35:00.480Z,16.70
2022-10-18T00:36:00.408Z,12.50
2022-10-18T00:37:00.406Z,10.20
2022-10-18T00:38:00.439Z,12.70
2022-10-18T00:39:00.488Z,12.70
2022-10-18T00:40:00.455Z,12.60
2022-10-18T00:41:00.401Z,11.70
2022-10-18T00:42:05.606Z,17.30
2022-10-18T00:43:00.367Z,15.00
2022-10-18T00:44:00.359Z,16.90
2022-10-18T00:45:00.367Z,17.00
2022-10-18T00:46:00.336Z,18.20
2022-10-18T00:47:00.334Z,15.50
2022-10-18T00:48:00.320Z,16.70
2022-10-18T00:49:00.360Z,15.50
2022-10-18T00:50:00.323Z,17.10
2022-10-18T00:51:00.305Z,18.20
2022-10-18T00:52:00.301Z,20.40
2022-10-18T00:53:00.725Z,25.90
2022-10-18T00:54:00.290Z,23.40
2022-10-18T00:55:00.295Z,22.60
2022-10-18T00:56:00.549Z,27.10
2022-10-18T00:57:00.277Z,25.10
2022-10-18T00:58:00.265Z,26.50
2022-10-18T00:59:00.253Z,26.20
2022-10-18T01:00:00.281Z,27.50
2022-10-18T01:01:00.267Z,27.10
2022-10-18T01:02:00.340Z,24.10
2022-10-18T01:03:00.243Z,29.30
2022-10-18T01:04:00.221Z,28.70
2022-10-18T01:05:00.205Z,32.30
2022-10-18T01:06:00.205Z,32.20
2022-10-18T01:07:00.260Z,27.30
2022-10-18T01:08:00.198Z,29.90
2022-10-18T01:09:00.188Z,27.10
2022-10-18T01:10:00.167Z,26.90
2022-10-18T01:11:00.177Z,29.00
2022-10-18T01:12:00.197Z,27.00
2022-10-18T01:13:00.691Z,23.80
2022-10-18T01:14:00.147Z,26.60
2022-10-18T01:15:00.144Z,25.20
2022-10-18T01:16:00.201Z,25.10
2022-10-18T01:17:00.120Z,30.50
2022-10-18T01:18:00.106Z,31.90
2022-10-18T01:19:00.657Z,28.80
2022-10-18T01:20:00.125Z,34.50
2022-10-18T01:21:00.090Z,30.10
2022-10-18T01:22:00.085Z,23.80
2022-10-18T01:23:00.114Z,29.00
2022-10-18T01:24:00.088Z,33.20
2022-10-18T01:25:00.200Z,34.30
2022-10-18T01:26:00.055Z,34.20
2022-10-18T01:27:00.046Z,23.90
2022-10-18T01:28:00.079Z,24.80
2022-10-18T01:29:00.114Z,25.20
2022-10-18T01:30:00.025Z,29.40
2022-10-18T01:31:00.453Z,19.80
2022-10-18T01:32:00.014Z,23.80
2022-10-18T01:33:00.014Z,20.00
2022-10-18T01:34:00.020Z,19.60
2022-10-18T01:35:00.005Z,21.10
2022-10-18T01:35:59.995Z,18.30
2022-10-18T01:36:59.971Z,16.50
2022-10-18T01:37:59.975Z,22.60
2022-10-18T01:38:59.966Z,20.60
2022-10-18T01:40:00.334Z,15.90
2022-10-18T01:41:00.848Z,14.90
2022-10-18T01:41:59.953Z,21.30
2022-10-18T01:42:59.982Z,18.30
2022-10-18T01:44:00.001Z,21.50
2022-10-18T01:44:59.919Z,20.00
2022-10-18T01:45:59.907Z,21.00
2022-10-18T01:46:59.923Z,18.80
2022-10-18T01:47:59.904Z,16.20
2022-10-18T01:48:59.911Z,15.50
2022-10-18T01:49:59.886Z,15.70
2022-10-18T01:50:59.882Z,16.20
2022-10-18T01:51:59.975Z,15.60
2022-10-18T01:52:59.867Z,12.10
2022-10-18T01:53:59.854Z,14.30
2022-10-18T01:55:00.788Z,11.50
2022-10-18T01:55:59.852Z,8.90
2022-10-18T01:56:59.841Z,10.60
2022-10-18T01:57:59.829Z,8.40
2022-10-18T01:58:59.819Z,9.70
2022-10-18T01:59:59.846Z,6.40
2022-10-18T02:00:59.881Z,5.10
2022-10-18T02:01:59.941Z,5.60
2022-10-18T02:02:59.801Z,4.60
2022-10-18T02:03:59.782Z,4.20
2022-10-18T02:04:59.783Z,4.20
2022-10-18T02:05:59.856Z,5.30
2022-10-18T02:06:59.770Z,6.60
2022-10-18T02:08:19.024Z,3.90
2022-10-18T02:09:00.744Z,3.00
2022-10-18T02:09:59.786Z,4.80
2022-10-18T02:10:59.768Z,4.00
2022-10-18T02:11:59.775Z,3.70
2022-10-18T02:12:59.766Z,6.80
2022-10-18T02:13:59.726Z,5.00
2022-10-18T02:14:59.711Z,4.10
2022-10-18T02:15:59.750Z,2.60
2022-10-18T02:16:59.716Z,3.70
2022-10-18T02:17:59.702Z,3.70
2022-10-18T02:18:59.705Z,3.60
2022-10-18T02:19:59.691Z,3.00
2022-10-18T02:20:59.678Z,3.70
2022-10-18T02:21:59.738Z,3.30
2022-10-18T02:23:00.385Z,4.90
2022-10-18T02:23:59.699Z,6.10
2022-10-18T02:24:59.839Z,4.50
2022-10-18T02:25:59.645Z,4.40
2022-10-18T02:26:59.639Z,6.20
2022-10-18T02:27:59.636Z,5.60
2022-10-18T02:28:59.621Z,4.30
2022-10-18T02:30:00.085Z,4.10
2022-10-18T02:30:59.599Z,5.30
2022-10-18T02:31:59.614Z,4.70
2022-10-18T02:32:59.594Z,4.40
2022-10-18T02:33:59.580Z,5.40
2022-10-18T02:34:59.569Z,5.40
2022-10-18T02:35:59.608Z,7.10
2022-10-18T02:36:59.588Z,5.00
2022-10-18T02:37:59.556Z,6.20
2022-10-18T02:38:59.550Z,7.00
2022-10-18T02:39:59.542Z,7.70
2022-10-18T02:40:59.552Z,6.00
2022-10-18T02:41:59.530Z,6.90
2022-10-18T02:42:59.511Z,8.90
2022-10-18T02:43:59.515Z,8.50
2022-10-18T02:44:59.510Z,8.10
2022-10-18T02:45:59.494Z,6.90
2022-10-18T02:46:59.509Z,7.80
2022-10-18T02:47:59.509Z,7.10
2022-10-18T02:48:59.475Z,8.40
2022-10-18T02:50:00.906Z,7.50
2022-10-18T02:50:59.477Z,8.40
2022-10-18T02:51:59.452Z,9.20
2022-10-18T02:52:59.453Z,8.20
2022-10-18T02:53:59.441Z,9.70
2022-10-18T02:55:00.393Z,10.40
2022-10-18T02:55:59.433Z,8.80
2022-10-18T02:56:59.414Z,10.20
2022-10-18T02:57:59.421Z,10.90
2022-10-18T02:58:59.415Z,10.50
2022-10-18T02:59:59.413Z,9.90
2022-10-18T03:00:59.409Z,11.00
2022-10-18T03:01:59.409Z,12.60
2022-10-18T03:02:59.382Z,12.00
2022-10-18T03:03:59.396Z,11.30
2022-10-18T03:04:59.376Z,16.00
2022-10-18T03:05:59.366Z,14.90
2022-10-18T03:06:59.370Z,13.50
2022-10-18T03:07:59.350Z,14.70
2022-10-18T03:08:59.335Z,13.20
2022-10-18T03:09:59.338Z,17.30
2022-10-18T03:10:59.343Z,14.60
2022-10-18T03:11:59.394Z,14.70
2022-10-18T03:12:59.323Z,15.20
2022-10-18T03:13:59.310Z,15.40
2022-10-18T03:14:59.301Z,17.30
2022-10-18T03:15:59.316Z,16.70
2022-10-18T03:16:59.298Z,17.80
2022-10-18T03:17:59.282Z,15.30
2022-10-18T03:18:59.279Z,15.20
2022-10-18T03:19:59.311Z,18.20
2022-10-18T03:20:59.261Z,17.20
2022-10-18T03:21:59.313Z,15.90
2022-10-18T03:22:59.331Z,12.70
2022-10-18T03:23:59.257Z,15.60
2022-10-18T03:24:59.673Z,14.40
2022-10-18T03:25:59.237Z,12.50
2022-10-18T03:26:59.227Z,14.70
2022-10-18T03:27:59.232Z,12.40
2022-10-18T03:28:59.248Z,11.10
2022-10-18T03:29:59.208Z,13.70
2022-10-18T03:30:59.202Z,10.80
2022-10-18T03:31:59.195Z,10.40
2022-10-18T03:32:59.201Z,10.70
2022-10-18T03:33:59.182Z,11.60
2022-10-18T03:34:59.170Z,11.70
2022-10-18T03:35:59.191Z,10.60
2022-10-18T03:37:02.093Z,9.30
2022-10-18T03:38:00.924Z,8.50
2022-10-18T03:38:59.147Z,10.20
2022-10-18T03:39:59.130Z,10.10
2022-10-18T03:40:59.133Z,11.40
2022-10-18T03:41:59.138Z,11.90
2022-10-18T03:42:59.109Z,12.70
2022-10-18T03:43:59.113Z,11.80
2022-10-18T03:44:59.103Z,9.30
2022-10-18T03:45:59.090Z,9.90
2022-10-18T03:46:59.089Z,9.50
2022-10-18T03:47:59.099Z,10.20
2022-10-18T03:48:59.104Z,10.30
2022-10-18T03:49:59.063Z,10.60
2022-10-18T03:50:59.062Z,13.90
2022-10-18T03:51:59.078Z,15.60
2022-10-18T03:52:59.042Z,14.80
2022-10-18T03:53:59.039Z,13.80
2022-10-18T03:54:59.056Z,15.70
2022-10-18T03:55:59.037Z,19.80
2022-10-18T03:56:59.023Z,16.40
2022-10-18T03:57:59.006Z,14.00
2022-10-18T03:58:59.006Z,16.40
2022-10-18T03:59:59.013Z,18.20
2022-10-18T04:00:58.981Z,18.60
2022-10-18T04:01:59.066Z,16.30
2022-10-18T04:02:58.984Z,19.00
2022-10-18T04:03:58.961Z,29.50
2022-10-18T04:04:58.957Z,22.10
2022-10-18T04:05:59.656Z,25.00
2022-10-18T04:06:59.469Z,30.60
2022-10-18T04:07:59.002Z,26.30
2022-10-18T04:08:58.939Z,32.20
2022-10-18T04:09:58.923Z,25.00
2022-10-18T04:10:58.913Z,25.80
2022-10-18T04:11:58.915Z,34.90
2022-10-18T04:12:58.916Z,28.30
2022-10-18T04:13:58.936Z,28.30
2022-10-18T04:14:58.890Z,36.00
2022-10-18T04:15:58.897Z,26.10
2022-10-18T04:16:58.883Z,37.10
2022-10-18T04:17:58.886Z,37.30
2022-10-18T04:18:58.863Z,37.50
2022-10-18T04:19:58.856Z,41.30
2022-10-18T04:20:58.842Z,30.50
2022-10-18T04:21:58.843Z,36.20
2022-10-18T04:22:58.844Z,40.90
2022-10-18T04:23:59.594Z,42.60
2022-10-18T04:24:58.816Z,41.80
2022-10-18T04:25:58.805Z,26.90
2022-10-18T04:26:58.805Z,40.50
2022-10-18T04:27:58.806Z,30.40
2022-10-18T04:28:58.871Z,24.70
2022-10-18T04:29:58.798Z,27.80
2022-10-18T04:30:58.784Z,22.50
2022-10-18T04:32:06.490Z,21.50
2022-10-18T04:32:58.757Z,25.60
2022-10-18T04:33:58.768Z,22.90
2022-10-18T04:34:59.176Z,23.50
2022-10-18T04:35:58.734Z,21.50
2022-10-18T04:36:58.733Z,26.50
2022-10-18T04:37:58.729Z,25.20
2022-10-18T04:38:58.716Z,29.20
2022-10-18T04:39:58.987Z,21.70
2022-10-18T04:40:58.704Z,27.50
2022-10-18T04:41:58.689Z,41.40
2022-10-18T04:42:58.690Z,22.40
2022-10-18T04:43:58.679Z,38.60
2022-10-18T04:44:58.675Z,27.60
2022-10-18T04:45:58.686Z,26.90
2022-10-18T04:46:58.659Z,32.00
2022-10-18T04:47:58.656Z,29.90
2022-10-18T04:48:58.652Z,33.30
2022-10-18T04:49:58.631Z,27.50
2022-10-18T04:50:58.645Z,48.30
2022-10-18T04:51:58.642Z,39.10
2022-10-18T04:52:58.623Z,33.30
2022-10-18T04:53:58.612Z,59.10
2022-10-18T04:54:58.608Z,42.70
2022-10-18T04:55:58.668Z,42.60
2022-10-18T04:56:58.605Z,41.20
2022-10-18T04:57:58.586Z,58.80
2022-10-18T04:58:58.577Z,31.30
2022-10-18T04:59:58.573Z,31.30
2022-10-18T05:00:58.576Z,38.90
2022-10-18T05:01:58.730Z,24.60
2022-10-18T05:02:58.580Z,30.90
2022-10-18T05:03:58.541Z,35.30
2022-10-18T05:04:58.533Z,32.30
2022-10-18T05:06:02.997Z,34.80
2022-10-18T05:06:58.534Z,36.50
2022-10-18T05:07:58.511Z,28.00
2022-10-18T05:08:58.518Z,29.60
2022-10-18T05:09:58.507Z,31.80
2022-10-18T05:10:58.575Z,32.50
2022-10-18T05:11:58.535Z,33.90
2022-10-18T05:12:58.485Z,51.50
2022-10-18T05:13:58.470Z,43.90
2022-10-18T05:14:58.491Z,36.80
2022-10-18T05:15:58.458Z,26.70
2022-10-18T05:16:58.453Z,31.90
2022-10-18T05:17:58.882Z,30.70
2022-10-18T05:18:58.437Z,44.10
2022-10-18T05:19:58.456Z,37.90
2022-10-18T05:20:58.429Z,37.40
2022-10-18T05:21:58.412Z,32.40
2022-10-18T05:22:58.414Z,34.60
2022-10-18T05:23:58.718Z,33.50
2022-10-18T05:24:58.394Z,45.10
2022-10-18T05:25:58.405Z,57.40
2022-10-18T05:26:58.384Z,35.30
2022-10-18T05:28:00.926Z,39.30
2022-10-18T05:28:58.512Z,47.70
2022-10-18T05:30:01.390Z,51.70
2022-10-18T05:30:59.370Z,39.70
2022-10-18T05:31:58.344Z,29.10
2022-10-18T05:32:58.348Z,45.60
2022-10-18T05:33:58.332Z,38.50
2022-10-18T05:34:58.322Z,37.10
2022-10-18T05:35:58.336Z,22.50
2022-10-18T05:36:58.314Z,27.60
2022-10-18T05:37:58.297Z,39.90
2022-10-18T05:39:01.013Z,40.70
2022-10-18T05:39:59.318Z,41.70
2022-10-18T05:40:58.284Z,54.80
2022-10-18T05:41:58.271Z,42.50
2022-10-18T05:42:58.269Z,39.80
2022-10-18T05:43:58.718Z,43.90
2022-10-18T05:44:58.330Z,53.30
2022-10-18T05:45:58.250Z,65.80
2022-10-18T05:46:58.963Z,67.10
2022-10-18T05:47:58.241Z,87.70
2022-10-18T05:48:58.232Z,87.30
2022-10-18T05:49:58.230Z,61.40
2022-10-18T05:50:58.249Z,73.20
2022-10-18T05:51:58.209Z,54.60
2022-10-18T05:53:06.909Z,73.40
2022-10-18T05:53:59.616Z,60.00
2022-10-18T05:54:59.534Z,58.10
2022-10-18T05:55:58.172Z,59.40
2022-10-18T05:56:58.821Z,65.90
2022-10-18T05:57:58.167Z,57.00
2022-10-18T05:58:58.156Z,73.60
2022-10-18T05:59:59.273Z,62.70
2022-10-18T06:00:58.149Z,70.00
2022-10-18T06:01:58.134Z,92.30
2022-10-18T06:03:00.276Z,75.60
2022-10-18T06:03:58.120Z,103.80
2022-10-18T06:04:58.115Z,74.90
2022-10-18T06:05:58.128Z,47.90
2022-10-18T06:06:58.532Z,59.60
2022-10-18T06:07:58.098Z,49.10
2022-10-18T06:08:58.093Z,49.20
2022-10-18T06:09:58.075Z,62.60
2022-10-18T06:10:58.071Z,62.10
2022-10-18T06:11:59.144Z,47.90
2022-10-18T06:12:58.065Z,64.60
2022-10-18T06:13:58.047Z,64.80
2022-10-18T06:14:58.085Z,52.60
2022-10-18T06:15:59.226Z,85.50
2022-10-18T06:16:58.459Z,69.80
2022-10-18T06:17:58.025Z,68.10
2022-10-18T06:18:58.010Z,75.60
2022-10-18T06:19:58.009Z,86.30
2022-10-18T06:20:58.031Z,73.80
2022-10-18T06:21:58.007Z,63.60
2022-10-18T06:22:57.992Z,59.00
2022-10-18T06:23:57.974Z,67.70
2022-10-18T06:24:57.983Z,71.20
2022-10-18T06:25:57.967Z,64.90
2022-10-18T06:26:58.221Z,69.90
2022-10-18T06:27:59.262Z,83.50
2022-10-18T06:28:58.001Z,86.30
2022-10-18T06:29:57.981Z,102.80
2022-10-18T06:30:57.929Z,82.90
2022-10-18T06:31:57.938Z,93.70
2022-10-18T06:32:57.927Z,73.70
2022-10-18T06:33:57.910Z,79.50
2022-10-18T06:34:57.919Z,84.50
2022-10-18T06:35:57.897Z,67.70
2022-10-18T06:36:58.817Z,66.60
2022-10-18T06:37:57.933Z,61.30
2022-10-18T06:38:57.891Z,60.70
2022-10-18T06:39:57.861Z,72.30
2022-10-18T06:40:57.857Z,65.60
2022-10-18T06:41:57.853Z,63.40
2022-10-18T06:43:05.876Z,66.30
2022-10-18T06:43:59.303Z,67.30
2022-10-18T06:44:57.834Z,71.20
2022-10-18T06:45:57.850Z,54.90
2022-10-18T06:46:57.824Z,53.60
2022-10-18T06:47:57.832Z,57.10
2022-10-18T06:48:57.805Z,65.80
2022-10-18T06:49:57.792Z,60.10
2022-10-18T06:50:58.479Z,57.10
2022-10-18T06:51:57.772Z,74.70
2022-10-18T06:52:57.767Z,58.80
2022-10-18T06:54:16.342Z,53.60
2022-10-18T06:54:58.753Z,51.60
2022-10-18T06:55:58.188Z,43.60
2022-10-18T06:56:57.745Z,46.10
2022-10-18T06:57:57.726Z,44.90
2022-10-18T06:59:57.720Z,37.50
2022-10-18T07:00:57.715Z,46.60
2022-10-18T07:01:57.770Z,36.70
2022-10-18T07:02:57.699Z,26.30
2022-10-18T07:03:57.705Z,34.20
2022-10-18T07:04:57.687Z,31.20
2022-10-18T07:05:57.675Z,32.00
2022-10-18T07:06:57.681Z,33.10
2022-10-18T07:07:57.660Z,43.40
2022-10-18T07:08:57.660Z,26.50
2022-10-18T07:09:57.642Z,35.40
2022-10-18T07:10:57.643Z,34.90
2022-10-18T07:11:57.626Z,31.40
2022-10-18T07:13:13.722Z,37.70
2022-10-18T07:13:58.618Z,33.40
2022-10-18T07:14:57.628Z,30.40
2022-10-18T07:15:57.609Z,33.20
2022-10-18T07:16:57.593Z,44.70
2022-10-18T07:17:57.591Z,29.40
2022-10-18T07:18:57.588Z,29.00
2022-10-18T07:19:57.597Z,33.60
2022-10-18T07:20:57.572Z,49.20
2022-10-18T07:21:57.553Z,37.80
2022-10-18T07:22:57.554Z,23.90
2022-10-18T07:24:00.865Z,39.80
2022-10-18T07:24:57.537Z,41.60
2022-10-18T07:25:57.535Z,44.30
2022-10-18T07:26:57.549Z,50.00
2022-10-18T07:27:57.521Z,47.70
2022-10-18T07:28:57.569Z,64.70
2022-10-18T07:29:57.499Z,58.80
2022-10-18T07:31:01.296Z,70.10
2022-10-18T07:31:58.502Z,63.20
2022-10-18T07:32:57.488Z,67.20
2022-10-18T07:33:57.473Z,56.00
2022-10-18T07:34:57.538Z,61.30
2022-10-18T07:35:57.491Z,52.80
2022-10-18T07:36:57.462Z,53.00
2022-10-18T07:37:57.455Z,66.40
2022-10-18T07:38:57.458Z,52.20
2022-10-18T07:39:57.438Z,52.50
2022-10-18T07:40:57.433Z,43.70
2022-10-18T07:41:57.430Z,51.90
2022-10-18T07:42:57.422Z,37.60
2022-10-18T07:43:57.411Z,53.20
2022-10-18T07:44:57.397Z,42.60
2022-10-18T07:45:57.396Z,46.80
2022-10-18T07:46:57.409Z,47.50
2022-10-18T07:47:57.386Z,65.60
2022-10-18T07:48:57.374Z,47.60
2022-10-18T07:49:57.380Z,49.50
2022-10-18T07:50:57.358Z,41.10
2022-10-18T07:51:57.387Z,37.90
2022-10-18T07:52:57.366Z,40.70
2022-10-18T07:53:57.351Z,55.40
2022-10-18T07:54:57.345Z,41.60
2022-10-18T07:55:57.329Z,57.70
2022-10-18T07:56:57.347Z,47.70
2022-10-18T07:57:57.313Z,55.30
2022-10-18T07:58:57.311Z,43.30
2022-10-18T07:59:57.297Z,67.30
2022-10-18T08:00:57.295Z,42.70
2022-10-18T08:01:57.375Z,53.90
2022-10-18T08:02:57.298Z,55.70
2022-10-18T08:03:57.278Z,68.90
2022-10-18T08:04:57.265Z,61.10
2022-10-18T08:05:57.279Z,52.40
2022-10-18T08:06:57.257Z,52.30
2022-10-18T08:07:57.265Z,46.90
2022-10-18T08:08:57.227Z,45.40
2022-10-18T08:09:57.227Z,34.50
2022-10-18T08:10:57.230Z,38.40
2022-10-18T08:11:57.449Z,56.90
2022-10-18T08:12:57.211Z,45.60
2022-10-18T08:13:57.195Z,40.20
2022-10-18T08:14:57.197Z,35.40
2022-10-18T08:15:57.199Z,33.60
2022-10-18T08:16:57.179Z,46.10
2022-10-18T08:17:57.182Z,55.30
2022-10-18T08:18:57.188Z,33.70
2022-10-18T08:20:11.867Z,36.60
2022-10-18T08:20:58.675Z,36.90
2022-10-18T08:21:57.146Z,43.50
2022-10-18T08:23:00.164Z,42.70
2022-10-18T08:23:57.160Z,27.00
2022-10-18T08:24:57.128Z,24.40
2022-10-18T08:25:57.123Z,48.20
2022-10-18T08:26:57.113Z,52.00
2022-10-18T08:27:57.137Z,44.10
2022-10-18T08:29:10.662Z,49.10
2022-10-18T08:29:58.125Z,40.60
2022-10-18T08:30:57.085Z,46.70
2022-10-18T08:31:57.064Z,46.00
2022-10-18T08:32:57.068Z,39.00
2022-10-18T08:33:57.562Z,37.60
2022-10-18T08:34:57.054Z,24.10
2022-10-18T08:35:57.058Z,61.50
2022-10-18T08:36:57.035Z,35.50
2022-10-18T08:37:57.032Z,35.60
2022-10-18T08:38:57.019Z,41.20
2022-10-18T08:39:57.046Z,30.50
2022-10-18T08:40:57.010Z,30.60
2022-10-18T08:41:57.024Z,39.20
2022-10-18T08:42:56.995Z,24.80
2022-10-18T08:43:56.986Z,31.90
2022-10-18T08:44:56.976Z,36.40
2022-10-18T08:45:56.972Z,41.60
2022-10-18T08:46:57.057Z,35.20
2022-10-18T08:47:56.951Z,33.40
2022-10-18T08:48:56.957Z,41.70
2022-10-18T08:49:56.950Z,33.00
2022-10-18T08:50:57.122Z,32.20
2022-10-18T08:51:56.923Z,38.50
2022-10-18T08:52:56.927Z,39.00
2022-10-18T08:53:56.910Z,39.30
2022-10-18T08:54:56.915Z,40.40
2022-10-18T08:55:56.931Z,45.90
2022-10-18T08:56:57.321Z,33.90
2022-10-18T08:57:56.891Z,38.10
2022-10-18T08:58:56.876Z,50.00
2022-10-18T08:59:56.866Z,36.50
2022-10-18T09:00:57.154Z,43.90
2022-10-18T09:01:56.869Z,57.10
2022-10-18T09:02:56.911Z,40.10
2022-10-18T09:03:56.849Z,47.10
2022-10-18T09:04:56.837Z,36.60
2022-10-18T09:05:56.825Z,38.30
2022-10-18T09:06:56.842Z,40.90
2022-10-18T09:07:56.817Z,39.70
2022-10-18T09:08:56.804Z,33.60
2022-10-18T09:09:56.806Z,42.20
2022-10-18T09:11:59.513Z,33.00
2022-10-18T09:12:58.230Z,25.70
2022-10-18T09:13:56.771Z,29.80
2022-10-18T09:14:56.772Z,28.80
2022-10-18T09:15:56.764Z,23.00
2022-10-18T09:16:56.749Z,28.40
2022-10-18T09:17:56.758Z,25.20
2022-10-18T09:18:57.693Z,23.70
2022-10-18T09:19:56.759Z,22.70
2022-10-18T09:20:56.733Z,35.50
2022-10-18T09:21:56.720Z,19.40
2022-10-18T09:22:56.707Z,43.00
2022-10-18T09:23:56.695Z,22.60
2022-10-18T09:24:57.794Z,33.10
2022-10-18T09:25:56.686Z,41.80
2022-10-18T09:26:56.705Z,31.80
2022-10-18T09:27:56.701Z,28.40
2022-10-18T09:28:56.810Z,24.40
2022-10-18T09:29:56.663Z,24.40
2022-10-18T09:30:58.788Z,29.10
2022-10-18T09:31:56.647Z,27.50
2022-10-18T09:32:56.644Z,24.70
2022-10-18T09:33:56.630Z,22.10
2022-10-18T09:34:56.627Z,21.80
2022-10-18T09:35:56.618Z,18.90
2022-10-18T09:36:57.332Z,16.30
2022-10-18T09:37:56.604Z,18.40
2022-10-18T09:38:59.893Z,23.10
2022-10-18T09:39:56.585Z,19.30
2022-10-18T09:40:56.588Z,27.60
2022-10-18T09:41:56.567Z,38.70
2022-10-18T09:42:56.716Z,22.60
2022-10-18T09:43:56.585Z,28.60
2022-10-18T09:44:56.550Z,24.80
2022-10-18T09:45:56.548Z,27.80
2022-10-18T09:46:56.552Z,16.10
2022-10-18T09:47:56.547Z,25.40
2022-10-18T09:48:56.528Z,30.20
2022-10-18T09:49:56.514Z,29.20
2022-10-18T09:50:56.545Z,23.50
2022-10-18T09:51:56.505Z,21.50
2022-10-18T09:52:57.337Z,20.80
2022-10-18T09:53:56.486Z,15.50
2022-10-18T09:54:56.488Z,12.90
2022-10-18T09:55:56.478Z,11.40
2022-10-18T09:57:56.466Z,13.30
2022-10-18T09:58:56.882Z,14.40
2022-10-18T09:59:56.472Z,15.60
2022-10-18T10:00:56.447Z,19.50
2022-10-18T10:01:56.429Z,14.60
2022-10-18T10:02:56.432Z,15.80
2022-10-18T10:03:56.421Z,16.30
2022-10-18T10:04:56.452Z,20.20
2022-10-18T10:05:56.414Z,10.60
2022-10-18T10:06:56.402Z,16.50
2022-10-18T10:07:56.389Z,11.80
2022-10-18T10:08:56.390Z,13.60
2022-10-18T10:09:56.397Z,12.40
2022-10-18T10:10:56.388Z,16.30
2022-10-18T10:11:56.379Z,10.10
2022-10-18T10:12:56.567Z,12.80
2022-10-18T10:13:56.345Z,13.60
2022-10-18T10:14:56.350Z,14.10
2022-10-18T10:15:56.442Z,9.70
2022-10-18T10:16:56.335Z,10.80
2022-10-18T10:17:56.329Z,8.90
2022-10-18T10:18:57.556Z,15.00
2022-10-18T10:19:56.306Z,14.70
2022-10-18T10:20:56.307Z,11.40
2022-10-18T10:21:56.292Z,10.40
2022-10-18T10:22:56.296Z,9.80
2022-10-18T10:23:56.291Z,8.30
2022-10-18T10:24:56.299Z,12.50
2022-10-18T10:25:56.261Z,9.00
2022-10-18T10:26:56.266Z,8.50
2022-10-18T10:27:56.262Z,11.10
2022-10-18T10:28:56.365Z,10.10
2022-10-18T10:29:56.248Z,10.90
2022-10-18T10:30:56.420Z,8.00
2022-10-18T10:31:56.250Z,10.70
2022-10-18T10:33:03.261Z,8.70
2022-10-18T10:33:56.213Z,8.60
2022-10-18T10:34:56.210Z,7.20
2022-10-18T10:35:56.196Z,10.10
2022-10-18T10:36:56.352Z,11.40
2022-10-18T10:37:56.212Z,9.20
2022-10-18T10:38:56.178Z,8.50
2022-10-18T10:40:17.356Z,10.50
2022-10-18T10:40:57.195Z,10.80
2022-10-18T10:41:56.163Z,7.80
2022-10-18T10:43:04.272Z,8.90
2022-10-18T10:43:57.149Z,10.40
2022-10-18T10:44:56.326Z,8.80
2022-10-18T10:45:56.146Z,6.80
2022-10-18T10:46:56.182Z,8.50
2022-10-18T10:47:56.202Z,9.50
2022-10-18T10:49:15.455Z,7.30
2022-10-18T10:49:57.122Z,8.10
2022-10-18T10:50:56.104Z,14.50
2022-10-18T10:52:08.218Z,10.60
2022-10-18T10:52:57.111Z,7.20
2022-10-18T10:53:56.104Z,8.00
2022-10-18T10:55:05.812Z,6.60
2022-10-18T10:55:57.084Z,8.60
2022-10-18T10:56:56.074Z,9.00
2022-10-18T10:57:56.060Z,9.20
2022-10-18T10:58:56.139Z,11.20
2022-10-18T10:59:56.045Z,9.50
2022-10-18T11:00:56.035Z,8.00
2022-10-18T11:01:56.040Z,7.90
2022-10-18T11:03:05.313Z,9.80
2022-10-18T11:03:57.096Z,8.60
2022-10-18T11:04:56.159Z,7.00
2022-10-18T11:05:56.007Z,8.20
2022-10-18T11:06:55.998Z,12.10
2022-10-18T11:07:56.018Z,10.80
2022-10-18T11:08:55.982Z,9.40
2022-10-18T11:09:55.997Z,7.80
2022-10-18T11:10:56.024Z,7.80
2022-10-18T11:11:55.955Z,11.20
2022-10-18T11:12:55.957Z,7.70
2022-10-18T11:14:07.390Z,7.30
2022-10-18T11:14:56.949Z,9.10
2022-10-18T11:15:55.932Z,19.00
2022-10-18T11:16:55.909Z,9.90
2022-10-18T11:17:55.947Z,8.30
2022-10-18T11:18:55.913Z,10.20
2022-10-18T11:19:55.953Z,6.90
2022-10-18T11:20:55.942Z,9.40
2022-10-18T11:21:56.611Z,7.40
2022-10-18T11:22:55.909Z,8.20
2022-10-18T11:23:55.866Z,7.40
2022-10-18T11:24:55.874Z,7.70
2022-10-18T11:25:55.883Z,6.20
2022-10-18T11:26:55.854Z,7.20
2022-10-18T11:27:55.849Z,6.90
2022-10-18T11:28:55.927Z,6.30
2022-10-18T11:29:55.828Z,7.10
2022-10-18T11:30:55.855Z,6.10
2022-10-18T11:31:55.817Z,6.60
2022-10-18T11:32:55.828Z,6.30
2022-10-18T11:34:08.753Z,6.10
2022-10-18T11:34:56.836Z,6.30
2022-10-18T11:35:58.190Z,5.60
2022-10-18T11:37:22.583Z,5.00
2022-10-18T11:37:56.770Z,6.70
2022-10-18T11:38:55.759Z,6.20
2022-10-18T11:39:55.788Z,5.40
2022-10-18T11:40:55.750Z,5.20
2022-10-18T11:41:55.763Z,5.20
2022-10-18T11:42:56.054Z,6.10
2022-10-18T11:44:03.895Z,5.20
2022-10-18T11:44:57.012Z,7.10
2022-10-18T11:45:55.716Z,5.80
2022-10-18T11:46:55.711Z,5.10
2022-10-18T11:47:56.031Z,5.10
2022-10-18T11:48:55.696Z,6.20
2022-10-18T11:49:55.741Z,6.00
2022-10-18T11:50:55.743Z,4.80
2022-10-18T11:52:07.943Z,5.40
2022-10-18T11:52:56.694Z,8.40
2022-10-18T11:53:56.128Z,5.30
2022-10-18T11:54:55.664Z,6.20
2022-10-18T11:55:55.644Z,6.90
2022-10-18T11:56:55.645Z,5.70
2022-10-18T11:57:55.649Z,7.40
2022-10-18T11:58:55.647Z,6.40
2022-10-18T11:59:55.641Z,6.80
2022-10-18T12:00:55.666Z,5.80
2022-10-18T12:01:55.610Z,5.40
2022-10-18T12:02:55.724Z,5.40
2022-10-18T12:03:55.626Z,5.70
2022-10-18T12:05:18.879Z,4.60
2022-10-18T12:05:56.594Z,6.00
2022-10-18T12:06:55.576Z,4.90
2022-10-18T12:07:55.580Z,7.00
2022-10-18T12:08:55.585Z,4.80
2022-10-18T12:09:55.597Z,4.40
2022-10-18T12:11:06.893Z,4.30
2022-10-18T12:11:56.553Z,4.80
2022-10-18T12:12:55.547Z,4.20
2022-10-18T12:13:55.561Z,6.70
2022-10-18T12:14:55.515Z,4.60
2022-10-18T12:15:55.515Z,5.90
2022-10-18T12:17:13.502Z,4.40
2022-10-18T12:17:56.830Z,3.90
2022-10-18T12:18:55.551Z,4.30
2022-10-18T12:19:55.478Z,4.00
2022-10-18T12:20:55.467Z,3.80
2022-10-18T12:21:55.494Z,6.10
2022-10-18T12:22:55.455Z,4.00
2022-10-18T12:23:55.479Z,4.80
2022-10-18T12:24:55.446Z,4.90
2022-10-18T12:25:55.445Z,5.80
2022-10-18T12:26:55.438Z,4.00
2022-10-18T12:27:55.485Z,3.80
2022-10-18T12:28:55.449Z,4.00
2022-10-18T12:29:55.488Z,3.60
2022-10-18T12:30:55.481Z,6.10
2022-10-18T12:31:55.430Z,4.30
2022-10-18T12:33:03.460Z,4.10
2022-10-18T12:33:56.410Z,3.40
2022-10-18T12:34:55.389Z,3.60
2022-10-18T12:35:55.394Z,3.20
2022-10-18T12:36:55.466Z,3.90
2022-10-18T12:37:55.339Z,3.30
2022-10-18T12:38:55.374Z,3.60
2022-10-18T12:40:13.219Z,3.90
2022-10-18T12:40:56.317Z,4.10
2022-10-18T12:41:55.319Z,3.20
2022-10-18T12:42:55.525Z,3.70
2022-10-18T12:43:55.320Z,3.90
2022-10-18T12:44:55.319Z,3.80
2022-10-18T12:45:55.298Z,3.70
2022-10-18T12:46:55.288Z,3.70
2022-10-18T12:47:55.284Z,3.50
2022-10-18T12:48:55.276Z,3.20
2022-10-18T12:49:55.289Z,3.60
2022-10-18T12:50:55.273Z,4.70
2022-10-18T12:51:55.674Z,3.30
2022-10-18T12:52:55.267Z,3.80
2022-10-18T12:53:55.245Z,4.20
2022-10-18T12:54:55.230Z,4.10
2022-10-18T12:55:55.263Z,4.80
2022-10-18T12:56:55.211Z,3.90
2022-10-18T12:57:55.211Z,4.00
2022-10-18T12:58:55.226Z,3.50
2022-10-18T12:59:55.971Z,4.50
2022-10-18T13:00:55.222Z,5.10
2022-10-18T13:01:55.433Z,4.70